Aviation Digital Data Service (ADDS)

Output produced by METARs form (2029 UTC 28 September 2016)
found at http://www.aviationweather.gov/adds/metars/
 
KMDT 281956Z 09008KT 7SM -RA FEW025 BKN045 OVC055 19/17 A3005 RMK AO2 RAE24B51 SLP176 P0012 T01940172
KMDT 281925Z 11008KT 10SM SCT026 OVC041 19/17 A3006 RMK AO2 RAE24 P0012 T01940167
KMDT 281907Z 11007KT 2 1/2SM R13/5000VP6000FT RA BR BKN042 BKN060 OVC075 19/17 A3006 RMK AO2 P0011 T01890172
KMDT 281900Z 12010KT 1 3/4SM R13/5000VP6000FT RA BR FEW030 BKN048 OVC070 19/17 A3005 RMK AO2 P0006 T01890167
KMDT 281856Z 13010KT 3SM R13/5000VP6000FT RA FEW030 BKN050 OVC075 19/16 A3005 RMK AO2 RAB27 SLP177 P0000 T01940161
KMDT 281756Z 12014KT 10SM FEW035 BKN075 21/15 A3005 RMK AO2 SLP176 T02110150 10239 20139 53002
KMDT 281656Z 11017KT 10SM BKN110 23/13 A3004 RMK AO2 SLP174 T02330128
KMDT 281556Z 13012G18KT 10SM SCT065 23/11 A3004 RMK AO2 SLP172 T02280106
KMDT 281456Z COR 1312G18KT 9SM SCT065 22/15 A3005
KMDT 281356Z 00000KT 6SM R13/6000VP6000FT HZ SCT075 18/15 A3004 RMK AO2 SLP172 T01780150
KMDT 281256Z 00000KT 5SM BR SCT006 SCT065 BKN100 16/14 A3002 RMK AO2 SLP166 T01560144
KMDT 281225Z 06003KT 5SM BR SCT006 SCT065 BKN100 16/14 A3002 RMK AO2 T01560144
KMDT 281218Z VRB03KT 5SM BR BKN006 BKN100 15/14 A3002 RMK AO2 T01500139
KMDT 281156Z 00000KT 5SM BR FEW007 SCT065 BKN100 14/13 A3001 RMK AO2 SLP162 T01390133 10139 20122 50004
KMDT 281056Z 36004KT 8SM FEW065 BKN250 13/12 A3001 RMK AO2 SLP163 T01280122
KMDT 280956Z 00000KT 7SM FEW016 FEW065 SCT250 13/13 A3000 RMK AO2 SLP159 T01330128
KMDT 280916Z 33003KT 7SM FEW065 13/12 A3000 RMK AO2 T01330122
KMDT 280856Z 00000KT 7SM BKN015 13/13 A3000 RMK AO2 SLP158 T01330128 51006
KMDT 280756Z 00000KT 9SM OVC014 14/13 A3000 RMK AO2 SLP157 T01390128
KMDT 280736Z 00000KT 10SM BKN017 13/13 A2999 RMK AO2 T01330128
KMDT 280656Z 06003KT 10SM FEW250 13/12 A2999 RMK AO2 SLP154 T01280117
KMDT 280556Z 08003KT 10SM CLR 13/12 A2998 RMK AO2 SLP151 T01280117 10172 20122 51009
KMDT 280456Z 00000KT 10SM CLR 13/12 A2997 RMK AO2 SLP148 T01330117 402440128
KMDT 280356Z 00000KT 10SM CLR 14/12 A2996 RMK AO2 SLP146 T01440117
KMDT 280256Z 00000KT 10SM CLR 14/11 A2995 RMK AO2 SLP142 T01390111 53017
KMDT 280156Z 08004KT 10SM CLR 16/12 A2993 RMK AO2 SLP136 T01560117
KMDT 280056Z 10004KT 10SM CLR 16/12 A2991 RMK AO2 SLP130 T01560122
KMDT 272356Z 12003KT 10SM CLR 17/14 A2990 RMK AO2 SLP125 T01670139 10244 20167 53012
KMDT 272256Z 00000KT 10SM CLR 19/14 A2988 RMK AO2 SLP118 T01940144
KMDT 272156Z 00000KT 10SM CLR 23/12 A2987 RMK AO2 SLP114 T02330122
KMDT 272056Z 00000KT 10SM CLR 24/08 A2986 RMK AO2 SLP112 T02440078 56015
KMDT 271956Z 00000KT 10SM FEW250 24/08 A2987 RMK AO2 SLP115 T02440078
KMDT 271856Z 00000KT 10SM FEW250 24/09 A2989 RMK AO2 SLP121 T02390094
KMDT 271756Z 00000KT 10SM FEW035 FEW250 23/08 A2991 RMK AO2 SLP127 T02280083 10239 20156 57023
KMDT 271656Z 32005KT 10SM FEW025 SCT070 22/11 A2993 RMK AO2 SLP134 T02220106
KMDT 271556Z 28003KT 10SM FEW025 SCT065 21/11 A2996 RMK AO2 SLP144 T02060111
KMDT 271456Z 33007KT 10SM CLR 19/12 A2998 RMK AO2 SLP150 T01940122 50008
KMDT 271356Z 30006KT 10SM CLR 18/13 A2998 RMK AO2 SLP152 T01830133
KMDT 271256Z 31004KT 10SM CLR 18/16 A2997 RMK AO2 SLP147 T01780156
KMDT 271156Z 29003KT 10SM CLR 16/15 A2995 RMK AO2 SLP143 70031 T01560150 10178 20144 53006
KMDT 271056Z 31004KT 4SM BR FEW006 15/15 A2994 RMK AO2 SLP138 T01500150 $
KMDT 270956Z 30004KT 5SM BR SCT006 17/17 A2994 RMK AO2 SLP138 T01670167 $
KMDT 270856Z 29004KT 4SM BR OVC006 17/17 A2993 RMK AO2 CIG 005V008 SLP137 T01720172 53001 $